sensor_id;sensor_type;location;lat;lon;timestamp;P1;durP1;ratioP1;P2;durP2;ratioP2
84135;SDS011;74238;50.566;7.262;2023-12-07T00:00:25;17.50;;;11.35;;
84135;SDS011;74238;50.566;7.262;2023-12-07T00:02:50;18.30;;;11.07;;
84135;SDS011;74238;50.566;7.262;2023-12-07T00:05:15;18.10;;;10.55;;
84135;SDS011;74238;50.566;7.262;2023-12-07T00:07:41;17.88;;;11.05;;
84135;SDS011;74238;50.566;7.262;2023-12-07T00:10:06;17.60;;;11.10;;
84135;SDS011;74238;50.566;7.262;2023-12-07T00:12:32;17.23;;;10.60;;
84135;SDS011;74238;50.566;7.262;2023-12-07T00:14:57;20.13;;;10.73;;
84135;SDS011;74238;50.566;7.262;2023-12-07T00:17:23;21.08;;;11.20;;
84135;SDS011;74238;50.566;7.262;2023-12-07T00:19:50;21.75;;;13.07;;
84135;SDS011;74238;50.566;7.262;2023-12-07T00:22:16;16.42;;;11.02;;
84135;SDS011;74238;50.566;7.262;2023-12-07T00:24:41;17.00;;;11.07;;
84135;SDS011;74238;50.566;7.262;2023-12-07T00:27:06;16.73;;;10.23;;
84135;SDS011;74238;50.566;7.262;2023-12-07T00:29:31;19.65;;;11.60;;
84135;SDS011;74238;50.566;7.262;2023-12-07T00:31:57;20.58;;;11.50;;
84135;SDS011;74238;50.566;7.262;2023-12-07T00:34:22;15.70;;;11.50;;
84135;SDS011;74238;50.566;7.262;2023-12-07T00:36:47;22.88;;;12.45;;
84135;SDS011;74238;50.566;7.262;2023-12-07T00:39:13;15.00;;;9.98;;
84135;SDS011;74238;50.566;7.262;2023-12-07T00:41:38;16.90;;;10.65;;
84135;SDS011;74238;50.566;7.262;2023-12-07T00:44:03;18.33;;;10.20;;
84135;SDS011;74238;50.566;7.262;2023-12-07T00:46:30;18.05;;;11.15;;
84135;SDS011;74238;50.566;7.262;2023-12-07T00:48:56;17.60;;;10.48;;
84135;SDS011;74238;50.566;7.262;2023-12-07T00:51:21;17.23;;;10.30;;
84135;SDS011;74238;50.566;7.262;2023-12-07T00:53:46;17.70;;;10.55;;
84135;SDS011;74238;50.566;7.262;2023-12-07T00:56:15;18.95;;;10.80;;
84135;SDS011;74238;50.566;7.262;2023-12-07T00:58:40;18.70;;;11.07;;
84135;SDS011;74238;50.566;7.262;2023-12-07T01:01:05;17.48;;;10.20;;
84135;SDS011;74238;50.566;7.262;2023-12-07T01:03:31;18.63;;;11.50;;
84135;SDS011;74238;50.566;7.262;2023-12-07T01:05:56;18.10;;;10.38;;
84135;SDS011;74238;50.566;7.262;2023-12-07T01:08:21;13.98;;;9.52;;
84135;SDS011;74238;50.566;7.262;2023-12-07T01:10:47;15.30;;;9.55;;
84135;SDS011;74238;50.566;7.262;2023-12-07T01:13:12;16.02;;;10.70;;
84135;SDS011;74238;50.566;7.262;2023-12-07T01:15:37;19.27;;;10.35;;
84135;SDS011;74238;50.566;7.262;2023-12-07T01:18:03;16.33;;;11.05;;
84135;SDS011;74238;50.566;7.262;2023-12-07T01:20:28;17.90;;;10.38;;
84135;SDS011;74238;50.566;7.262;2023-12-07T01:22:53;24.73;;;12.30;;
84135;SDS011;74238;50.566;7.262;2023-12-07T01:25:19;17.73;;;11.27;;
84135;SDS011;74238;50.566;7.262;2023-12-07T01:27:46;18.60;;;10.20;;
84135;SDS011;74238;50.566;7.262;2023-12-07T01:30:12;16.85;;;10.45;;
84135;SDS011;74238;50.566;7.262;2023-12-07T01:32:37;19.20;;;10.23;;
84135;SDS011;74238;50.566;7.262;2023-12-07T01:35:03;16.30;;;9.65;;
84135;SDS011;74238;50.566;7.262;2023-12-07T01:37:29;19.05;;;9.18;;
84135;SDS011;74238;50.566;7.262;2023-12-07T01:39:55;17.60;;;10.27;;
84135;SDS011;74238;50.566;7.262;2023-12-07T01:42:21;15.45;;;10.68;;
84135;SDS011;74238;50.566;7.262;2023-12-07T01:44:46;15.75;;;9.18;;
84135;SDS011;74238;50.566;7.262;2023-12-07T01:47:11;18.48;;;10.25;;
84135;SDS011;74238;50.566;7.262;2023-12-07T01:49:37;17.40;;;9.27;;
84135;SDS011;74238;50.566;7.262;2023-12-07T01:52:03;12.10;;;9.18;;
84135;SDS011;74238;50.566;7.262;2023-12-07T01:54:29;17.27;;;9.82;;
84135;SDS011;74238;50.566;7.262;2023-12-07T01:56:55;16.13;;;10.40;;
84135;SDS011;74238;50.566;7.262;2023-12-07T01:59:21;17.63;;;10.88;;
84135;SDS011;74238;50.566;7.262;2023-12-07T02:01:46;17.83;;;10.50;;
84135;SDS011;74238;50.566;7.262;2023-12-07T02:04:12;15.82;;;10.77;;
84135;SDS011;74238;50.566;7.262;2023-12-07T02:06:37;18.90;;;9.60;;
84135;SDS011;74238;50.566;7.262;2023-12-07T02:09:03;17.13;;;10.43;;
84135;SDS011;74238;50.566;7.262;2023-12-07T02:11:28;16.83;;;9.55;;
84135;SDS011;74238;50.566;7.262;2023-12-07T02:13:54;14.65;;;9.15;;
84135;SDS011;74238;50.566;7.262;2023-12-07T02:16:25;16.85;;;9.65;;
84135;SDS011;74238;50.566;7.262;2023-12-07T02:21:39;16.80;;;10.02;;
84135;SDS011;74238;50.566;7.262;2023-12-07T02:24:11;16.13;;;10.50;;
84135;SDS011;74238;50.566;7.262;2023-12-07T02:26:44;16.20;;;10.30;;
84135;SDS011;74238;50.566;7.262;2023-12-07T02:29:10;19.80;;;10.52;;
84135;SDS011;74238;50.566;7.262;2023-12-07T02:31:35;17.52;;;9.70;;
84135;SDS011;74238;50.566;7.262;2023-12-07T02:34:01;18.35;;;10.43;;
84135;SDS011;74238;50.566;7.262;2023-12-07T02:36:26;18.77;;;9.88;;
84135;SDS011;74238;50.566;7.262;2023-12-07T02:38:56;18.58;;;11.40;;
84135;SDS011;74238;50.566;7.262;2023-12-07T02:41:23;17.85;;;10.48;;
84135;SDS011;74238;50.566;7.262;2023-12-07T02:46:16;21.65;;;10.75;;
84135;SDS011;74238;50.566;7.262;2023-12-07T02:48:43;12.85;;;9.73;;
84135;SDS011;74238;50.566;7.262;2023-12-07T02:51:08;17.38;;;10.00;;
84135;SDS011;74238;50.566;7.262;2023-12-07T02:53:33;18.88;;;9.40;;
84135;SDS011;74238;50.566;7.262;2023-12-07T02:55:59;18.90;;;9.70;;
84135;SDS011;74238;50.566;7.262;2023-12-07T02:58:24;13.70;;;8.77;;
84135;SDS011;74238;50.566;7.262;2023-12-07T03:00:49;18.02;;;9.68;;
84135;SDS011;74238;50.566;7.262;2023-12-07T03:03:15;15.07;;;9.52;;
84135;SDS011;74238;50.566;7.262;2023-12-07T03:05:40;15.05;;;9.30;;
84135;SDS011;74238;50.566;7.262;2023-12-07T03:08:05;15.85;;;8.65;;
84135;SDS011;74238;50.566;7.262;2023-12-07T03:10:33;17.35;;;10.25;;
84135;SDS011;74238;50.566;7.262;2023-12-07T03:12:59;16.17;;;8.40;;
84135;SDS011;74238;50.566;7.262;2023-12-07T03:15:24;18.52;;;8.88;;
84135;SDS011;74238;50.566;7.262;2023-12-07T03:17:49;11.35;;;8.25;;
84135;SDS011;74238;50.566;7.262;2023-12-07T03:20:15;11.27;;;8.07;;
84135;SDS011;74238;50.566;7.262;2023-12-07T03:22:40;14.80;;;8.18;;
84135;SDS011;74238;50.566;7.262;2023-12-07T03:25:06;14.15;;;8.90;;
84135;SDS011;74238;50.566;7.262;2023-12-07T03:27:31;12.75;;;8.80;;
84135;SDS011;74238;50.566;7.262;2023-12-07T03:29:57;13.13;;;9.15;;
84135;SDS011;74238;50.566;7.262;2023-12-07T03:32:22;13.65;;;8.90;;
84135;SDS011;74238;50.566;7.262;2023-12-07T03:34:48;15.48;;;9.20;;
84135;SDS011;74238;50.566;7.262;2023-12-07T03:37:13;12.35;;;7.85;;
84135;SDS011;74238;50.566;7.262;2023-12-07T03:39:38;12.63;;;8.27;;
84135;SDS011;74238;50.566;7.262;2023-12-07T03:42:04;12.07;;;7.68;;
84135;SDS011;74238;50.566;7.262;2023-12-07T03:44:29;12.25;;;7.63;;
84135;SDS011;74238;50.566;7.262;2023-12-07T03:46:55;11.73;;;8.15;;
84135;SDS011;74238;50.566;7.262;2023-12-07T03:49:21;12.18;;;7.68;;
84135;SDS011;74238;50.566;7.262;2023-12-07T03:51:46;11.25;;;7.93;;
84135;SDS011;74238;50.566;7.262;2023-12-07T03:54:12;11.70;;;7.70;;
84135;SDS011;74238;50.566;7.262;2023-12-07T03:56:37;12.57;;;8.35;;
84135;SDS011;74238;50.566;7.262;2023-12-07T03:59:03;14.38;;;8.88;;
84135;SDS011;74238;50.566;7.262;2023-12-07T04:01:28;14.40;;;8.27;;
84135;SDS011;74238;50.566;7.262;2023-12-07T04:03:55;14.70;;;8.82;;
84135;SDS011;74238;50.566;7.262;2023-12-07T04:08:47;16.40;;;8.93;;
84135;SDS011;74238;50.566;7.262;2023-12-07T04:11:13;14.52;;;9.90;;
84135;SDS011;74238;50.566;7.262;2023-12-07T04:13:39;13.95;;;9.52;;
84135;SDS011;74238;50.566;7.262;2023-12-07T04:16:04;13.75;;;8.18;;
84135;SDS011;74238;50.566;7.262;2023-12-07T04:18:30;13.43;;;7.65;;
84135;SDS011;74238;50.566;7.262;2023-12-07T04:20:56;10.70;;;7.20;;
84135;SDS011;74238;50.566;7.262;2023-12-07T04:23:21;10.82;;;7.80;;
84135;SDS011;74238;50.566;7.262;2023-12-07T04:25:46;11.13;;;7.35;;
84135;SDS011;74238;50.566;7.262;2023-12-07T04:28:12;11.05;;;7.53;;
84135;SDS011;74238;50.566;7.262;2023-12-07T04:30:37;12.02;;;8.13;;
84135;SDS011;74238;50.566;7.262;2023-12-07T04:33:03;13.13;;;7.85;;
84135;SDS011;74238;50.566;7.262;2023-12-07T04:35:28;13.95;;;8.98;;
84135;SDS011;74238;50.566;7.262;2023-12-07T04:42:45;10.10;;;6.80;;
84135;SDS011;74238;50.566;7.262;2023-12-07T04:45:11;13.50;;;7.38;;
84135;SDS011;74238;50.566;7.262;2023-12-07T04:47:36;11.00;;;8.23;;
84135;SDS011;74238;50.566;7.262;2023-12-07T04:50:01;14.63;;;8.70;;
84135;SDS011;74238;50.566;7.262;2023-12-07T04:52:27;12.98;;;7.53;;
84135;SDS011;74238;50.566;7.262;2023-12-07T04:54:52;14.00;;;7.45;;
84135;SDS011;74238;50.566;7.262;2023-12-07T04:57:17;14.05;;;8.40;;
84135;SDS011;74238;50.566;7.262;2023-12-07T04:59:43;14.45;;;8.40;;
84135;SDS011;74238;50.566;7.262;2023-12-07T05:02:15;12.13;;;7.78;;
84135;SDS011;74238;50.566;7.262;2023-12-07T05:04:41;10.95;;;7.07;;
84135;SDS011;74238;50.566;7.262;2023-12-07T05:07:07;12.40;;;6.78;;
84135;SDS011;74238;50.566;7.262;2023-12-07T05:09:32;11.90;;;7.97;;
84135;SDS011;74238;50.566;7.262;2023-12-07T05:11:57;12.20;;;7.63;;
84135;SDS011;74238;50.566;7.262;2023-12-07T05:14:23;11.18;;;7.22;;
84135;SDS011;74238;50.566;7.262;2023-12-07T05:16:49;16.23;;;7.55;;
84135;SDS011;74238;50.566;7.262;2023-12-07T05:19:18;13.50;;;7.90;;
84135;SDS011;74238;50.566;7.262;2023-12-07T05:21:45;15.30;;;8.52;;
84135;SDS011;74238;50.566;7.262;2023-12-07T05:24:11;12.05;;;7.22;;
84135;SDS011;74238;50.566;7.262;2023-12-07T05:26:37;11.57;;;7.25;;
84135;SDS011;74238;50.566;7.262;2023-12-07T05:29:02;14.98;;;8.57;;
84135;SDS011;74238;50.566;7.262;2023-12-07T05:31:28;14.38;;;8.75;;
84135;SDS011;74238;50.566;7.262;2023-12-07T05:33:53;12.15;;;7.93;;
84135;SDS011;74238;50.566;7.262;2023-12-07T05:36:18;14.95;;;7.95;;
84135;SDS011;74238;50.566;7.262;2023-12-07T05:38:44;11.23;;;7.32;;
84135;SDS011;74238;50.566;7.262;2023-12-07T05:41:09;12.57;;;8.07;;
84135;SDS011;74238;50.566;7.262;2023-12-07T05:43:34;10.20;;;7.15;;
84135;SDS011;74238;50.566;7.262;2023-12-07T05:46:00;13.20;;;7.65;;
84135;SDS011;74238;50.566;7.262;2023-12-07T05:48:25;11.90;;;8.07;;
84135;SDS011;74238;50.566;7.262;2023-12-07T05:50:50;12.55;;;6.95;;
84135;SDS011;74238;50.566;7.262;2023-12-07T05:53:16;14.60;;;8.07;;
84135;SDS011;74238;50.566;7.262;2023-12-07T05:55:41;13.73;;;8.07;;
84135;SDS011;74238;50.566;7.262;2023-12-07T05:58:06;16.30;;;8.40;;
84135;SDS011;74238;50.566;7.262;2023-12-07T06:00:32;13.80;;;8.32;;
84135;SDS011;74238;50.566;7.262;2023-12-07T06:02:57;13.65;;;8.05;;
84135;SDS011;74238;50.566;7.262;2023-12-07T06:05:22;15.75;;;8.77;;
84135;SDS011;74238;50.566;7.262;2023-12-07T06:07:47;16.10;;;9.00;;
84135;SDS011;74238;50.566;7.262;2023-12-07T06:10:13;13.98;;;9.80;;
84135;SDS011;74238;50.566;7.262;2023-12-07T06:12:38;14.60;;;8.73;;
84135;SDS011;74238;50.566;7.262;2023-12-07T06:15:06;14.02;;;8.32;;
84135;SDS011;74238;50.566;7.262;2023-12-07T06:17:33;11.82;;;7.90;;
84135;SDS011;74238;50.566;7.262;2023-12-07T06:19:58;17.27;;;8.65;;
84135;SDS011;74238;50.566;7.262;2023-12-07T06:22:24;12.88;;;8.93;;
84135;SDS011;74238;50.566;7.262;2023-12-07T06:24:49;13.55;;;8.00;;
84135;SDS011;74238;50.566;7.262;2023-12-07T06:27:15;18.27;;;9.02;;
84135;SDS011;74238;50.566;7.262;2023-12-07T06:29:40;15.52;;;8.88;;
84135;SDS011;74238;50.566;7.262;2023-12-07T06:32:08;12.75;;;8.15;;
84135;SDS011;74238;50.566;7.262;2023-12-07T06:34:33;12.60;;;8.73;;
84135;SDS011;74238;50.566;7.262;2023-12-07T06:36:58;12.95;;;8.75;;
84135;SDS011;74238;50.566;7.262;2023-12-07T06:39:24;14.63;;;8.85;;
84135;SDS011;74238;50.566;7.262;2023-12-07T06:41:49;16.55;;;9.95;;
84135;SDS011;74238;50.566;7.262;2023-12-07T06:44:15;16.33;;;9.52;;
84135;SDS011;74238;50.566;7.262;2023-12-07T06:46:43;20.90;;;10.55;;
84135;SDS011;74238;50.566;7.262;2023-12-07T06:49:08;19.00;;;9.90;;
84135;SDS011;74238;50.566;7.262;2023-12-07T06:51:34;18.50;;;10.82;;
84135;SDS011;74238;50.566;7.262;2023-12-07T06:53:59;16.15;;;10.18;;
84135;SDS011;74238;50.566;7.262;2023-12-07T06:56:25;17.13;;;11.10;;
84135;SDS011;74238;50.566;7.262;2023-12-07T06:58:50;18.10;;;11.85;;
84135;SDS011;74238;50.566;7.262;2023-12-07T07:01:16;19.63;;;12.15;;
84135;SDS011;74238;50.566;7.262;2023-12-07T07:03:41;21.42;;;10.70;;
84135;SDS011;74238;50.566;7.262;2023-12-07T07:06:06;16.88;;;9.27;;
84135;SDS011;74238;50.566;7.262;2023-12-07T07:08:32;18.60;;;11.35;;
84135;SDS011;74238;50.566;7.262;2023-12-07T07:10:57;21.98;;;12.93;;
84135;SDS011;74238;50.566;7.262;2023-12-07T07:13:22;21.80;;;12.68;;
84135;SDS011;74238;50.566;7.262;2023-12-07T07:15:48;19.70;;;11.02;;
84135;SDS011;74238;50.566;7.262;2023-12-07T07:18:14;20.40;;;11.00;;
84135;SDS011;74238;50.566;7.262;2023-12-07T07:20:39;20.02;;;11.88;;
84135;SDS011;74238;50.566;7.262;2023-12-07T07:23:04;19.80;;;12.50;;
84135;SDS011;74238;50.566;7.262;2023-12-07T07:25:30;17.63;;;10.80;;
84135;SDS011;74238;50.566;7.262;2023-12-07T07:27:55;20.05;;;10.95;;
84135;SDS011;74238;50.566;7.262;2023-12-07T07:30:21;22.42;;;12.00;;
84135;SDS011;74238;50.566;7.262;2023-12-07T07:32:46;23.05;;;11.90;;
84135;SDS011;74238;50.566;7.262;2023-12-07T07:35:12;20.35;;;11.73;;
84135;SDS011;74238;50.566;7.262;2023-12-07T07:37:40;18.77;;;11.65;;
84135;SDS011;74238;50.566;7.262;2023-12-07T07:40:06;25.17;;;12.18;;
84135;SDS011;74238;50.566;7.262;2023-12-07T07:42:33;24.40;;;13.02;;
84135;SDS011;74238;50.566;7.262;2023-12-07T07:44:58;25.58;;;12.60;;
84135;SDS011;74238;50.566;7.262;2023-12-07T07:47:24;21.83;;;12.20;;
84135;SDS011;74238;50.566;7.262;2023-12-07T07:49:49;24.23;;;13.23;;
84135;SDS011;74238;50.566;7.262;2023-12-07T07:52:14;24.15;;;12.85;;
84135;SDS011;74238;50.566;7.262;2023-12-07T07:54:40;23.88;;;14.43;;
84135;SDS011;74238;50.566;7.262;2023-12-07T07:57:05;22.88;;;14.35;;
84135;SDS011;74238;50.566;7.262;2023-12-07T07:59:30;23.25;;;13.23;;
84135;SDS011;74238;50.566;7.262;2023-12-07T08:01:56;22.33;;;12.70;;
84135;SDS011;74238;50.566;7.262;2023-12-07T08:04:22;21.20;;;13.30;;
84135;SDS011;74238;50.566;7.262;2023-12-07T08:06:47;23.40;;;12.32;;
84135;SDS011;74238;50.566;7.262;2023-12-07T08:09:13;17.73;;;11.35;;
84135;SDS011;74238;50.566;7.262;2023-12-07T08:11:38;23.40;;;12.43;;
84135;SDS011;74238;50.566;7.262;2023-12-07T08:14:04;28.40;;;12.57;;
84135;SDS011;74238;50.566;7.262;2023-12-07T08:16:29;22.40;;;11.50;;
84135;SDS011;74238;50.566;7.262;2023-12-07T08:18:55;26.73;;;13.27;;
84135;SDS011;74238;50.566;7.262;2023-12-07T08:21:20;20.00;;;12.32;;
84135;SDS011;74238;50.566;7.262;2023-12-07T08:23:46;21.73;;;12.55;;
84135;SDS011;74238;50.566;7.262;2023-12-07T08:26:12;23.38;;;11.88;;
84135;SDS011;74238;50.566;7.262;2023-12-07T08:28:39;26.45;;;12.63;;
84135;SDS011;74238;50.566;7.262;2023-12-07T08:31:04;22.30;;;13.10;;
84135;SDS011;74238;50.566;7.262;2023-12-07T08:33:30;19.10;;;11.88;;
84135;SDS011;74238;50.566;7.262;2023-12-07T08:35:55;20.42;;;11.35;;
84135;SDS011;74238;50.566;7.262;2023-12-07T08:38:21;23.88;;;13.10;;
84135;SDS011;74238;50.566;7.262;2023-12-07T08:40:47;22.92;;;11.50;;
84135;SDS011;74238;50.566;7.262;2023-12-07T08:43:13;20.92;;;11.80;;
84135;SDS011;74238;50.566;7.262;2023-12-07T08:45:39;20.77;;;11.98;;
84135;SDS011;74238;50.566;7.262;2023-12-07T08:48:04;21.20;;;11.35;;
84135;SDS011;74238;50.566;7.262;2023-12-07T08:50:29;20.13;;;11.02;;
84135;SDS011;74238;50.566;7.262;2023-12-07T08:52:55;18.02;;;9.88;;
84135;SDS011;74238;50.566;7.262;2023-12-07T08:55:20;18.08;;;10.70;;
84135;SDS011;74238;50.566;7.262;2023-12-07T08:57:45;19.50;;;10.30;;
84135;SDS011;74238;50.566;7.262;2023-12-07T09:00:11;20.48;;;10.82;;
84135;SDS011;74238;50.566;7.262;2023-12-07T09:02:39;19.67;;;10.73;;
84135;SDS011;74238;50.566;7.262;2023-12-07T09:05:05;22.27;;;12.15;;
84135;SDS011;74238;50.566;7.262;2023-12-07T09:07:31;18.52;;;10.68;;
84135;SDS011;74238;50.566;7.262;2023-12-07T09:09:56;19.80;;;11.00;;
84135;SDS011;74238;50.566;7.262;2023-12-07T09:12:21;19.23;;;9.90;;
84135;SDS011;74238;50.566;7.262;2023-12-07T09:14:47;19.88;;;10.63;;
84135;SDS011;74238;50.566;7.262;2023-12-07T09:17:12;17.30;;;11.05;;
84135;SDS011;74238;50.566;7.262;2023-12-07T09:19:37;16.80;;;9.80;;
84135;SDS011;74238;50.566;7.262;2023-12-07T09:22:03;17.17;;;10.02;;
84135;SDS011;74238;50.566;7.262;2023-12-07T09:24:28;17.33;;;10.00;;
84135;SDS011;74238;50.566;7.262;2023-12-07T09:26:53;18.08;;;9.77;;
84135;SDS011;74238;50.566;7.262;2023-12-07T09:29:19;19.60;;;10.80;;
84135;SDS011;74238;50.566;7.262;2023-12-07T09:31:44;21.05;;;9.75;;
84135;SDS011;74238;50.566;7.262;2023-12-07T09:34:09;18.42;;;9.88;;
84135;SDS011;74238;50.566;7.262;2023-12-07T09:36:35;18.48;;;10.68;;
84135;SDS011;74238;50.566;7.262;2023-12-07T09:39:00;21.30;;;10.55;;
84135;SDS011;74238;50.566;7.262;2023-12-07T09:41:26;18.90;;;10.55;;
84135;SDS011;74238;50.566;7.262;2023-12-07T09:43:53;17.70;;;10.38;;
84135;SDS011;74238;50.566;7.262;2023-12-07T09:46:20;17.98;;;9.65;;
84135;SDS011;74238;50.566;7.262;2023-12-07T09:48:45;17.40;;;10.38;;
84135;SDS011;74238;50.566;7.262;2023-12-07T09:51:17;15.23;;;9.60;;
84135;SDS011;74238;50.566;7.262;2023-12-07T09:53:43;16.23;;;9.73;;
84135;SDS011;74238;50.566;7.262;2023-12-07T09:56:10;17.95;;;9.60;;
84135;SDS011;74238;50.566;7.262;2023-12-07T09:58:35;19.27;;;11.68;;
84135;SDS011;74238;50.566;7.262;2023-12-07T10:01:01;16.02;;;9.50;;
84135;SDS011;74238;50.566;7.262;2023-12-07T10:03:26;23.25;;;11.45;;
84135;SDS011;74238;50.566;7.262;2023-12-07T10:05:56;16.02;;;9.60;;
84135;SDS011;74238;50.566;7.262;2023-12-07T10:08:30;18.27;;;9.30;;
84135;SDS011;74238;50.566;7.262;2023-12-07T10:13:29;9.20;;;5.88;;
84135;SDS011;74238;50.566;7.262;2023-12-07T10:16:04;15.77;;;8.40;;
84135;SDS011;74238;50.566;7.262;2023-12-07T10:18:38;14.23;;;9.45;;
84135;SDS011;74238;50.566;7.262;2023-12-07T10:21:05;17.63;;;10.27;;
84135;SDS011;74238;50.566;7.262;2023-12-07T10:23:31;15.88;;;8.13;;
84135;SDS011;74238;50.566;7.262;2023-12-07T10:25:57;14.68;;;8.32;;
84135;SDS011;74238;50.566;7.262;2023-12-07T10:28:24;14.38;;;8.48;;
84135;SDS011;74238;50.566;7.262;2023-12-07T10:30:49;16.33;;;9.30;;
84135;SDS011;74238;50.566;7.262;2023-12-07T10:33:15;13.32;;;8.48;;
84135;SDS011;74238;50.566;7.262;2023-12-07T10:35:41;16.17;;;9.70;;
84135;SDS011;74238;50.566;7.262;2023-12-07T10:38:09;13.27;;;8.27;;
84135;SDS011;74238;50.566;7.262;2023-12-07T10:40:35;13.63;;;8.77;;
84135;SDS011;74238;50.566;7.262;2023-12-07T10:43:02;16.70;;;9.32;;
84135;SDS011;74238;50.566;7.262;2023-12-07T10:45:32;14.45;;;8.65;;
84135;SDS011;74238;50.566;7.262;2023-12-07T10:48:03;16.17;;;9.57;;
84135;SDS011;74238;50.566;7.262;2023-12-07T10:50:31;14.25;;;8.13;;
84135;SDS011;74238;50.566;7.262;2023-12-07T10:52:59;13.45;;;8.48;;
84135;SDS011;74238;50.566;7.262;2023-12-07T10:55:42;13.40;;;8.57;;
84135;SDS011;74238;50.566;7.262;2023-12-07T10:58:17;13.90;;;8.95;;
84135;SDS011;74238;50.566;7.262;2023-12-07T11:00:44;15.30;;;9.73;;
84135;SDS011;74238;50.566;7.262;2023-12-07T11:03:14;15.65;;;8.80;;
84135;SDS011;74238;50.566;7.262;2023-12-07T11:05:41;12.85;;;8.60;;
84135;SDS011;74238;50.566;7.262;2023-12-07T11:08:08;14.10;;;8.18;;
84135;SDS011;74238;50.566;7.262;2023-12-07T11:13:28;12.65;;;8.75;;
84135;SDS011;74238;50.566;7.262;2023-12-07T11:15:56;12.63;;;7.85;;
84135;SDS011;74238;50.566;7.262;2023-12-07T11:18:24;13.07;;;8.15;;
84135;SDS011;74238;50.566;7.262;2023-12-07T11:20:50;15.98;;;9.07;;
84135;SDS011;74238;50.566;7.262;2023-12-07T11:23:17;13.73;;;8.70;;
84135;SDS011;74238;50.566;7.262;2023-12-07T11:25:43;16.50;;;7.95;;
84135;SDS011;74238;50.566;7.262;2023-12-07T11:28:10;13.27;;;8.15;;
84135;SDS011;74238;50.566;7.262;2023-12-07T11:30:37;11.00;;;6.95;;
84135;SDS011;74238;50.566;7.262;2023-12-07T11:33:03;12.82;;;7.03;;
84135;SDS011;74238;50.566;7.262;2023-12-07T11:35:29;12.55;;;7.35;;
84135;SDS011;74238;50.566;7.262;2023-12-07T11:40:28;13.07;;;7.80;;
84135;SDS011;74238;50.566;7.262;2023-12-07T11:43:01;10.25;;;7.47;;
84135;SDS011;74238;50.566;7.262;2023-12-07T11:45:40;10.32;;;6.78;;
84135;SDS011;74238;50.566;7.262;2023-12-07T11:48:16;12.63;;;8.10;;
84135;SDS011;74238;50.566;7.262;2023-12-07T11:50:54;11.75;;;8.15;;
84135;SDS011;74238;50.566;7.262;2023-12-07T11:53:32;8.45;;;5.95;;
84135;SDS011;74238;50.566;7.262;2023-12-07T11:55:59;9.05;;;6.63;;
84135;SDS011;74238;50.566;7.262;2023-12-07T11:58:26;10.07;;;6.88;;
84135;SDS011;74238;50.566;7.262;2023-12-07T12:00:52;14.23;;;7.90;;
84135;SDS011;74238;50.566;7.262;2023-12-07T12:03:19;13.13;;;7.90;;
84135;SDS011;74238;50.566;7.262;2023-12-07T12:05:45;10.77;;;7.07;;
84135;SDS011;74238;50.566;7.262;2023-12-07T12:08:11;10.88;;;7.47;;
84135;SDS011;74238;50.566;7.262;2023-12-07T12:10:37;10.20;;;6.25;;
84135;SDS011;74238;50.566;7.262;2023-12-07T12:13:03;11.40;;;7.53;;
84135;SDS011;74238;50.566;7.262;2023-12-07T12:15:29;10.77;;;7.65;;
84135;SDS011;74238;50.566;7.262;2023-12-07T12:17:59;13.15;;;7.35;;
84135;SDS011;74238;50.566;7.262;2023-12-07T12:20:25;13.10;;;8.40;;
84135;SDS011;74238;50.566;7.262;2023-12-07T12:22:51;11.02;;;7.35;;
84135;SDS011;74238;50.566;7.262;2023-12-07T12:25:20;11.60;;;7.18;;
84135;SDS011;74238;50.566;7.262;2023-12-07T12:27:51;16.23;;;7.63;;
84135;SDS011;74238;50.566;7.262;2023-12-07T12:30:18;15.65;;;8.68;;
84135;SDS011;74238;50.566;7.262;2023-12-07T12:32:45;14.32;;;8.50;;
84135;SDS011;74238;50.566;7.262;2023-12-07T12:37:39;12.32;;;8.20;;
84135;SDS011;74238;50.566;7.262;2023-12-07T12:40:07;14.20;;;7.63;;
84135;SDS011;74238;50.566;7.262;2023-12-07T12:42:34;16.90;;;8.50;;
84135;SDS011;74238;50.566;7.262;2023-12-07T12:45:02;14.48;;;8.23;;
84135;SDS011;74238;50.566;7.262;2023-12-07T12:47:28;14.73;;;8.27;;
84135;SDS011;74238;50.566;7.262;2023-12-07T12:49:54;12.45;;;8.23;;
84135;SDS011;74238;50.566;7.262;2023-12-07T12:52:19;16.20;;;8.20;;
84135;SDS011;74238;50.566;7.262;2023-12-07T12:54:45;11.98;;;8.20;;
84135;SDS011;74238;50.566;7.262;2023-12-07T12:59:36;12.27;;;7.23;;
84135;SDS011;74238;50.566;7.262;2023-12-07T13:02:02;15.65;;;9.05;;
84135;SDS011;74238;50.566;7.262;2023-12-07T13:04:32;11.45;;;7.68;;
84135;SDS011;74238;50.566;7.262;2023-12-07T13:06:59;14.38;;;8.80;;
84135;SDS011;74238;50.566;7.262;2023-12-07T13:09:25;13.63;;;8.20;;
84135;SDS011;74238;50.566;7.262;2023-12-07T13:14:17;13.85;;;7.82;;
84135;SDS011;74238;50.566;7.262;2023-12-07T13:16:42;13.55;;;8.40;;
84135;SDS011;74238;50.566;7.262;2023-12-07T13:19:08;13.73;;;8.82;;
84135;SDS011;74238;50.566;7.262;2023-12-07T13:21:33;15.10;;;8.23;;
84135;SDS011;74238;50.566;7.262;2023-12-07T13:23:58;15.48;;;8.18;;
84135;SDS011;74238;50.566;7.262;2023-12-07T13:26:24;12.82;;;8.32;;
84135;SDS011;74238;50.566;7.262;2023-12-07T13:28:49;13.88;;;7.85;;
84135;SDS011;74238;50.566;7.262;2023-12-07T13:31:15;16.73;;;8.50;;
84135;SDS011;74238;50.566;7.262;2023-12-07T13:33:41;13.98;;;7.80;;
84135;SDS011;74238;50.566;7.262;2023-12-07T13:36:06;14.95;;;8.45;;
84135;SDS011;74238;50.566;7.262;2023-12-07T13:38:32;17.45;;;8.52;;
84135;SDS011;74238;50.566;7.262;2023-12-07T13:40:59;13.48;;;9.15;;
84135;SDS011;74238;50.566;7.262;2023-12-07T13:43:25;14.27;;;9.50;;
84135;SDS011;74238;50.566;7.262;2023-12-07T13:45:50;14.60;;;8.40;;
84135;SDS011;74238;50.566;7.262;2023-12-07T13:48:16;14.25;;;8.73;;
84135;SDS011;74238;50.566;7.262;2023-12-07T13:50:43;16.45;;;8.13;;
84135;SDS011;74238;50.566;7.262;2023-12-07T13:53:08;15.57;;;8.65;;
84135;SDS011;74238;50.566;7.262;2023-12-07T13:55:37;15.00;;;8.10;;
84135;SDS011;74238;50.566;7.262;2023-12-07T13:58:04;16.90;;;9.80;;
84135;SDS011;74238;50.566;7.262;2023-12-07T14:00:31;16.42;;;9.32;;
84135;SDS011;74238;50.566;7.262;2023-12-07T14:02:57;12.30;;;8.60;;
84135;SDS011;74238;50.566;7.262;2023-12-07T14:05:22;15.45;;;10.43;;
84135;SDS011;74238;50.566;7.262;2023-12-07T14:07:49;14.60;;;9.15;;
84135;SDS011;74238;50.566;7.262;2023-12-07T14:10:15;16.75;;;9.32;;
84135;SDS011;74238;50.566;7.262;2023-12-07T14:12:40;21.48;;;10.40;;
84135;SDS011;74238;50.566;7.262;2023-12-07T14:15:06;13.88;;;9.02;;
84135;SDS011;74238;50.566;7.262;2023-12-07T14:17:32;16.73;;;9.90;;
84135;SDS011;74238;50.566;7.262;2023-12-07T14:20:05;16.75;;;8.77;;
84135;SDS011;74238;50.566;7.262;2023-12-07T14:22:32;15.48;;;9.63;;
84135;SDS011;74238;50.566;7.262;2023-12-07T14:24:58;13.52;;;9.32;;
84135;SDS011;74238;50.566;7.262;2023-12-07T14:27:23;14.07;;;8.68;;
84135;SDS011;74238;50.566;7.262;2023-12-07T14:29:49;14.00;;;8.65;;
84135;SDS011;74238;50.566;7.262;2023-12-07T14:32:17;17.15;;;8.95;;
84135;SDS011;74238;50.566;7.262;2023-12-07T14:34:43;15.77;;;9.15;;
84135;SDS011;74238;50.566;7.262;2023-12-07T14:37:09;14.13;;;8.60;;
84135;SDS011;74238;50.566;7.262;2023-12-07T14:39:35;13.45;;;8.00;;
84135;SDS011;74238;50.566;7.262;2023-12-07T14:42:04;21.27;;;11.68;;
84135;SDS011;74238;50.566;7.262;2023-12-07T14:44:30;17.58;;;8.88;;
84135;SDS011;74238;50.566;7.262;2023-12-07T14:46:55;15.10;;;8.35;;
84135;SDS011;74238;50.566;7.262;2023-12-07T14:49:21;16.73;;;9.10;;
84135;SDS011;74238;50.566;7.262;2023-12-07T14:51:48;11.00;;;6.90;;